Time;durP1;ratioP1;P1;durP2;ratioP2;P2;SDS_P1;SDS_P2;PMS_P1;PMS_P2;Temp;Humidity;BMP_temperature;BMP_pressure;BME280_temperature;BME280_humidity;BME280_pressure;Samples;Min_cycle;Max_cycle;Signal;HPM_P1;HPM_P2
2023/01/26 00:08:04;;;;;;;9.10;6.10;;;;;;;20.58;40.29;100476.34;21027999;28;20066;-63
2023/01/26 00:18:06;;;;;;;26.50;6.60;;;;;;;20.62;40.67;100432.94;21056250;28;20041;-66
2023/01/26 00:28:07;;;;;;;18.80;6.55;;;;;;;20.62;41.73;100382.91;21029706;28;20102;-64
2023/01/26 00:38:14;;;;;;;15.30;5.93;;;;;;;20.65;41.81;100315.56;21008505;28;20045;-63
2023/01/26 00:48:16;;;;;;;13.27;5.45;;;;;;;20.60;42.61;100268.38;21021453;28;20028;-63
2023/01/26 00:58:17;;;;;;;12.57;5.10;;;;;;;20.45;42.30;100271.28;21014851;28;20082;-65
2023/01/26 01:08:19;;;;;;;8.90;5.10;;;;;;;20.52;42.75;100255.13;21024171;28;20086;-63
2023/01/26 01:18:20;;;;;;;8.27;4.47;;;;;;;20.62;42.28;100216.09;21019998;28;20110;-62
2023/01/26 01:28:24;;;;;;;9.13;4.55;;;;;;;20.68;42.49;100228.81;21025052;28;20036;-63
2023/01/26 01:38:26;;;;;;;7.30;4.30;;;;;;;20.76;42.45;100224.56;21017446;28;20122;-62
2023/01/26 01:48:42;;;;;;;7.88;4.90;;;;;;;20.76;42.23;100122.50;21012500;28;20098;-64
2023/01/26 01:58:44;;;;;;;7.55;4.45;;;;;;;20.85;42.33;100119.03;21023028;28;20040;-62
2023/01/26 02:08:52;;;;;;;6.85;4.20;;;;;;;20.89;42.76;100108.97;21048696;28;20028;-64
2023/01/26 02:18:53;;;;;;;6.93;3.92;;;;;;;20.91;42.43;100076.97;21027982;28;20059;-62
2023/01/26 02:28:55;;;;;;;4.57;3.28;;;;;;;20.90;42.34;100050.28;21033245;28;20043;-63
2023/01/26 02:39:22;;;;;;;7.43;3.65;;;;;;;20.99;41.89;100023.44;21044043;28;20109;-62
2023/01/26 02:59:46;;;;;;;5.53;3.60;;;;;;;20.79;42.47;99912.53;21021517;28;20040;-64
2023/01/26 03:09:47;;;;;;;6.05;3.40;;;;;;;20.97;42.33;99902.47;21074941;28;20040;-64
2023/01/26 03:30:13;;;;;;;11.07;6.07;;;;;;;20.95;42.02;99851.91;21055247;28;20032;-63
2023/01/26 04:00:56;;;;;;;9.60;6.50;;;;;;;20.74;42.00;99780.00;21007619;28;20039;-62
2023/01/26 04:10:58;;;;;;;9.27;6.15;;;;;;;20.89;42.25;99819.75;21046263;28;20048;-62
2023/01/26 04:31:24;;;;;;;9.27;5.53;;;;;;;20.88;42.25;99784.75;21036615;28;20388;-62
2023/01/26 04:41:25;;;;;;;8.52;5.63;;;;;;;20.79;42.47;99799.34;21020269;28;20071;-63
2023/01/26 04:51:27;;;;;;;9.25;5.45;;;;;;;20.88;42.67;99756.94;21033437;28;20445;-62
2023/01/26 05:01:28;;;;;;;7.53;5.30;;;;;;;20.81;42.46;99747.06;21005389;28;20036;-61
2023/01/26 05:11:35;;;;;;;10.65;5.45;;;;;;;20.95;42.02;99685.06;21018054;28;20036;-61
2023/01/26 05:21:40;;;;;;;12.52;5.50;;;;;;;20.99;41.77;99672.19;20994342;28;20106;-62
2023/01/26 05:31:41;;;;;;;8.43;5.63;;;;;;;21.01;41.65;99658.78;21022220;28;20056;-62
2023/01/26 05:41:42;;;;;;;7.03;4.85;;;;;;;21.05;41.30;99643.09;21026539;28;20403;-63
2023/01/26 05:51:44;;;;;;;8.18;4.72;;;;;;;21.06;41.15;99619.72;21081065;28;20031;-63
2023/01/26 06:01:45;;;;;;;7.13;4.40;;;;;;;21.06;41.08;99644.75;21026277;28;20058;-63
2023/01/26 06:11:46;;;;;;;7.45;4.65;;;;;;;21.09;41.25;99685.84;21019334;28;20040;-63
2023/01/26 06:21:48;;;;;;;7.80;4.90;;;;;;;21.01;41.51;99661.56;21008386;28;20036;-63
2023/01/26 06:31:49;;;;;;;9.02;4.63;;;;;;;21.07;41.32;99724.25;21062467;28;20056;-63
2023/01/26 06:41:51;;;;;;;8.80;3.88;;;;;;;21.09;41.30;99702.53;21064842;28;20048;-64
2023/01/26 06:52:02;;;;;;;5.90;4.15;;;;;;;21.08;41.30;99703.69;21060616;28;20546;-63
2023/01/26 07:02:05;;;;;;;5.60;3.88;;;;;;;21.08;41.21;99695.34;21089175;28;20387;-63
2023/01/26 07:12:06;;;;;;;6.88;4.20;;;;;;;21.05;41.30;99713.47;21049402;28;20086;-63
2023/01/26 07:22:08;;;;;;;5.18;3.80;;;;;;;21.03;41.51;99731.63;21051330;28;20066;-63
2023/01/26 07:32:09;;;;;;;5.20;3.58;;;;;;;21.04;41.65;99761.06;21027079;28;20615;-63
2023/01/26 07:42:12;;;;;;;6.03;3.35;;;;;;;21.04;41.36;99755.50;21050789;28;20434;-63
2023/01/26 07:52:13;;;;;;;4.97;3.60;;;;;;;21.02;41.04;99764.13;21010064;28;20075;-63
2023/01/26 08:02:20;;;;;;;4.32;3.67;;;;;;;21.01;41.58;99773.63;21019354;28;20395;-63
2023/01/26 08:12:21;;;;;;;4.70;3.53;;;;;;;21.00;41.28;99765.59;21032944;28;20381;-63
2023/01/26 08:22:23;;;;;;;4.47;3.20;;;;;;;20.94;40.98;99778.78;21035729;28;20094;-63
2023/01/26 08:32:24;;;;;;;3.95;2.78;;;;;;;20.98;41.01;99813.19;21035338;28;20049;-63
2023/01/26 08:42:26;;;;;;;3.45;2.85;;;;;;;20.96;41.38;99814.63;21034103;28;20048;-63
2023/01/26 08:52:30;;;;;;;3.25;2.95;;;;;;;20.95;40.91;99818.53;21031022;28;20040;-63
2023/01/26 09:02:31;;;;;;;4.75;3.10;;;;;;;20.91;40.88;99834.19;20995297;28;20094;-62
2023/01/26 09:12:32;;;;;;;4.45;3.15;;;;;;;20.76;40.76;99825.00;21063459;28;20036;-62
2023/01/26 09:22:34;;;;;;;3.90;2.83;;;;;;;20.93;41.09;99856.94;21062218;28;20515;-64
2023/01/26 09:32:36;;;;;;;3.05;2.60;;;;;;;20.90;40.87;99850.06;21044584;28;20089;-62
2023/01/26 09:43:04;;;;;;;3.40;2.88;;;;;;;20.89;40.71;99886.50;21035049;28;20048;-62
2023/01/26 09:53:15;;;;;;;4.50;3.10;;;;;;;20.91;40.88;99896.19;21033839;28;20098;-62
2023/01/26 10:03:31;;;;;;;3.53;2.50;;;;;;;20.90;40.76;99918.75;21030575;28;20052;-62
2023/01/26 10:13:33;;;;;;;2.10;1.90;;;;;;;20.93;41.03;99948.72;21009674;28;20457;-62
2023/01/26 10:23:35;;;;;;;2.58;2.15;;;;;;;20.87;40.70;99966.63;21040214;28;20044;-62
2023/01/26 10:33:39;;;;;;;2.65;2.03;;;;;;;20.99;41.22;100006.75;21004281;28;20036;-62
2023/01/26 10:43:42;;;;;;;2.08;1.77;;;;;;;21.02;41.17;100033.09;20997287;28;20098;-62
2023/01/26 10:53:43;;;;;;;2.22;1.75;;;;;;;21.05;41.18;100052.81;21040482;28;20031;-62
2023/01/26 11:04:04;;;;;;;2.17;1.98;;;;;;;21.00;41.00;100066.81;21032774;28;20032;-62
2023/01/26 11:14:18;;;;;;;2.00;1.75;;;;;;;21.05;40.93;100080.63;21021285;28;20045;-62
2023/01/26 11:24:48;;;;;;;2.95;1.90;;;;;;;21.04;40.74;100101.22;21014705;28;20392;-62
2023/01/26 11:35:14;;;;;;;2.78;1.73;;;;;;;21.10;41.13;100096.41;21008528;28;20105;-62
2023/01/26 11:45:49;;;;;;;1.98;1.77;;;;;;;20.99;40.85;100106.06;21030656;28;20102;-62
2023/01/26 11:56:21;;;;;;;2.05;1.85;;;;;;;21.08;40.98;100140.41;21011988;28;20044;-63
2023/01/26 12:06:41;;;;;;;2.50;1.70;;;;;;;21.05;41.62;100143.78;21033323;28;20476;-64
2023/01/26 12:16:42;;;;;;;2.35;1.95;;;;;;;21.13;42.20;100187.63;21032790;28;20044;-64
2023/01/26 12:26:48;;;;;;;6.65;1.90;;;;;;;21.16;42.13;100198.13;20998324;28;20037;-62
2023/01/26 12:37:09;;;;;;;5.88;1.95;;;;;;;21.14;42.03;100216.25;21022437;28;20403;-62
2023/01/26 12:47:28;;;;;;;6.22;2.33;;;;;;;21.13;41.76;100226.56;21062864;28;20043;-62
2023/01/26 12:57:39;;;;;;;2.72;1.63;;;;;;;21.12;41.64;100233.25;21020302;28;20557;-63
2023/01/26 13:07:43;;;;;;;5.13;1.90;;;;;;;21.20;41.61;100267.91;21074644;28;20105;-65
2023/01/26 13:18:10;;;;;;;4.18;1.85;;;;;;;21.18;41.25;100272.97;21031569;28;20547;-63
2023/01/26 13:28:12;;;;;;;4.15;1.70;;;;;;;21.20;41.56;100302.13;21044916;28;20059;-62
2023/01/26 13:38:20;;;;;;;5.57;1.92;;;;;;;21.17;41.40;100305.53;21039290;28;20584;-63
2023/01/26 13:48:47;;;;;;;1.60;1.27;;;;;;;21.12;41.28;100325.06;21048324;28;20044;-64
2023/01/26 13:58:49;;;;;;;2.15;1.52;;;;;;;21.16;41.14;100328.06;21150961;28;20036;-64
2023/01/26 14:08:53;;;;;;;4.38;1.77;;;;;;;21.16;41.05;100356.72;21048295;28;20376;-62
2023/01/26 14:19:16;;;;;;;2.83;1.50;;;;;;;21.12;40.91;100364.03;21046114;28;20407;-63
2023/01/26 14:29:27;;;;;;;1.95;1.50;;;;;;;21.13;41.10;100365.66;21018526;28;20040;-63
2023/01/26 14:39:28;;;;;;;2.13;1.50;;;;;;;21.23;40.86;100378.63;21101561;28;20040;-64
2023/01/26 14:49:58;;;;;;;2.90;1.23;;;;;;;21.25;40.99;100409.75;21096971;27;20044;-61
2023/01/26 15:00:07;;;;;;;2.20;1.58;;;;;;;21.24;40.96;100436.75;21070927;28;20044;-62
2023/01/26 15:10:33;;;;;;;3.42;1.50;;;;;;;21.18;41.41;100448.25;21088919;28;20040;-64
2023/01/26 15:20:38;;;;;;;4.15;1.60;;;;;;;21.24;41.44;100464.59;21060259;28;20423;-63
2023/01/26 15:30:47;;;;;;;3.22;1.63;;;;;;;21.23;41.63;100476.84;21062160;28;20040;-62
2023/01/26 15:40:54;;;;;;;4.03;1.77;;;;;;;21.21;41.71;100473.53;21003008;28;20070;-64
2023/01/26 15:50:55;;;;;;;5.47;2.03;;;;;;;21.25;41.57;100496.84;21014064;28;20052;-64
2023/01/26 16:01:00;;;;;;;6.15;2.42;;;;;;;21.25;41.47;100502.41;21012343;28;20048;-63
2023/01/26 16:11:01;;;;;;;6.95;2.00;;;;;;;21.23;41.62;100510.25;20999677;28;20541;-62
2023/01/26 16:21:14;;;;;;;4.18;1.80;;;;;;;21.20;41.00;100510.81;20999316;28;20041;-62
2023/01/26 16:31:22;;;;;;;4.95;1.98;;;;;;;21.18;40.84;100512.25;20998431;28;20438;-62
2023/01/26 16:41:29;;;;;;;3.10;1.70;;;;;;;21.19;41.22;100530.59;20996904;28;20044;-64
2023/01/26 16:51:40;;;;;;;5.63;2.28;;;;;;;21.16;40.95;100504.19;20995482;28;20048;-62
2023/01/26 17:01:44;;;;;;;4.43;1.98;;;;;;;21.03;41.19;100490.97;20995762;28;20480;-62
2023/01/26 17:11:46;;;;;;;4.93;1.50;;;;;;;21.09;40.99;100498.13;20995518;28;20045;-63
2023/01/26 17:21:47;;;;;;;6.72;1.70;;;;;;;21.05;41.04;100480.38;20994653;28;20047;-63
2023/01/26 17:31:50;;;;;;;1.73;1.35;;;;;;;20.96;40.93;100482.13;20994645;28;20928;-64
2023/01/26 17:41:52;;;;;;;3.60;1.60;;;;;;;20.96;41.00;100501.59;20993323;28;20048;-62
2023/01/26 17:51:56;;;;;;;1.50;1.35;;;;;;;20.93;41.35;100502.16;20993042;28;20037;-62
2023/01/26 18:01:58;;;;;;;3.85;1.63;;;;;;;20.89;40.71;100506.66;21000723;28;20446;-62
2023/01/26 18:11:59;;;;;;;3.53;2.00;;;;;;;20.88;40.75;100499.44;21009061;28;20037;-61
2023/01/26 18:22:01;;;;;;;2.45;1.90;;;;;;;20.89;40.57;100517.78;21008634;28;20040;-61
2023/01/26 18:32:02;;;;;;;2.03;1.50;;;;;;;20.90;40.18;100516.69;21002185;28;20047;-61
2023/01/26 18:42:04;;;;;;;2.40;1.63;;;;;;;20.88;40.37;100532.81;21006279;28;20048;-61
2023/01/26 18:52:05;;;;;;;3.40;1.90;;;;;;;20.81;40.15;100539.53;21006232;28;20049;-62
2023/01/26 19:02:07;;;;;;;2.13;1.70;;;;;;;20.63;39.83;100529.13;21003955;28;20103;-62
2023/01/26 19:12:08;;;;;;;3.10;1.48;;;;;;;20.73;39.45;100573.53;21003151;28;20043;-62
2023/01/26 19:22:12;;;;;;;2.10;1.90;;;;;;;20.75;39.76;100576.84;21003875;28;20040;-62
2023/01/26 19:32:14;;;;;;;1.70;1.60;;;;;;;20.73;39.34;100595.78;21003368;28;20098;-61
2023/01/26 19:42:15;;;;;;;1.70;1.60;;;;;;;20.71;39.46;100625.81;21002716;28;20089;-62
2023/01/26 19:52:16;;;;;;;2.00;1.48;;;;;;;20.71;39.74;100653.63;21001538;28;20483;-62
2023/01/26 20:02:18;;;;;;;1.73;1.63;;;;;;;20.67;39.27;100685.91;21000448;28;20044;-62
2023/01/26 20:12:19;;;;;;;1.83;1.52;;;;;;;20.66;38.97;100695.34;20999635;28;20041;-62
2023/01/26 20:22:23;;;;;;;1.95;1.42;;;;;;;20.64;38.98;100719.81;20998807;28;20037;-62
2023/01/26 20:32:24;;;;;;;3.03;1.58;;;;;;;20.63;39.65;100720.94;20997966;28;20064;-62
2023/01/26 20:42:28;;;;;;;2.00;1.70;;;;;;;20.60;39.58;100740.13;20996734;28;20048;-62
2023/01/26 20:52:33;;;;;;;1.90;1.80;;;;;;;20.60;39.60;100765.16;20995818;28;20062;-63
2023/01/26 21:02:34;;;;;;;1.95;1.75;;;;;;;20.58;39.09;100793.25;20995613;28;20041;-63
2023/01/26 21:12:38;;;;;;;1.80;1.67;;;;;;;20.55;38.79;100800.19;20994943;28;20040;-62
2023/01/26 21:22:40;;;;;;;2.00;1.40;;;;;;;20.57;39.14;100830.47;20993955;28;20102;-63
2023/01/26 21:32:41;;;;;;;1.58;1.40;;;;;;;20.54;38.81;100847.75;20993033;28;20037;-62
2023/01/26 21:42:42;;;;;;;1.92;1.70;;;;;;;20.52;38.72;100839.66;20993123;28;20044;-63
2023/01/26 21:52:56;;;;;;;1.73;1.63;;;;;;;20.50;38.51;100868.88;20992597;28;20082;-63
2023/01/26 22:02:59;;;;;;;1.40;1.30;;;;;;;20.48;38.54;100876.63;20992576;28;20063;-62
2023/01/26 22:13:03;;;;;;;1.40;1.30;;;;;;;20.47;38.50;100902.75;20994893;28;20393;-62
2023/01/26 22:23:04;;;;;;;1.83;1.35;;;;;;;20.34;38.96;100904.13;21032819;28;20055;-64
2023/01/26 22:33:06;;;;;;;1.65;1.30;;;;;;;20.48;38.93;100932.22;21017918;28;20044;-62
2023/01/26 22:43:08;;;;;;;1.95;1.60;;;;;;;20.47;39.19;100938.88;21050479;28;20049;-62
2023/01/26 22:53:10;;;;;;;1.95;1.42;;;;;;;20.42;39.24;100939.72;21008309;28;20091;-62
2023/01/26 23:03:13;;;;;;;1.42;1.33;;;;;;;20.50;39.20;100957.81;21014214;28;20097;-62
2023/01/26 23:13:14;;;;;;;1.60;1.50;;;;;;;20.51;38.95;100987.28;21025932;28;20051;-62
2023/01/26 23:23:17;;;;;;;1.85;1.58;;;;;;;20.45;39.10;100982.81;21024201;28;20498;-63
2023/01/26 23:33:21;;;;;;;1.63;1.42;;;;;;;20.37;38.96;100989.75;21052395;28;20044;-63
2023/01/26 23:43:24;;;;;;;2.28;1.75;;;;;;;20.50;39.10;101007.88;21078993;28;20040;-62
2023/01/26 23:53:26;;;;;;;1.50;1.33;;;;;;;20.50;39.00;101032.88;21076667;28;20044;-62
